sensor_id;sensor_type;location;lat;lon;timestamp;temperature;humidity
75899;DHT22;64576;50.460;4.866;2023-05-19T00:01:07;7.17;81.40
75899;DHT22;64576;50.460;4.866;2023-05-19T00:03:34;7.15;81.48
75899;DHT22;64576;50.460;4.866;2023-05-19T00:06:05;7.04;82.13
75899;DHT22;64576;50.460;4.866;2023-05-19T00:08:33;6.85;82.73
75899;DHT22;64576;50.460;4.866;2023-05-19T00:11:00;6.86;83.57
75899;DHT22;64576;50.460;4.866;2023-05-19T00:13:26;7.04;82.90
75899;DHT22;64576;50.460;4.866;2023-05-19T00:15:52;6.97;82.53
75899;DHT22;64576;50.460;4.866;2023-05-19T00:18:17;7.11;81.69
75899;DHT22;64576;50.460;4.866;2023-05-19T00:20:43;7.11;82.52
75899;DHT22;64576;50.460;4.866;2023-05-19T00:23:09;6.82;82.94
75899;DHT22;64576;50.460;4.866;2023-05-19T00:25:35;7.28;80.64
75899;DHT22;64576;50.460;4.866;2023-05-19T00:28:00;7.14;80.40
75899;DHT22;64576;50.460;4.866;2023-05-19T00:30:27;7.14;81.18
75899;DHT22;64576;50.460;4.866;2023-05-19T00:32:53;7.14;80.48
75899;DHT22;64576;50.460;4.866;2023-05-19T00:35:19;7.49;79.53
75899;DHT22;64576;50.460;4.866;2023-05-19T00:37:44;7.41;79.08
75899;DHT22;64576;50.460;4.866;2023-05-19T00:40:10;7.18;80.13
75899;DHT22;64576;50.460;4.866;2023-05-19T00:42:35;7.54;79.30
75899;DHT22;64576;50.460;4.866;2023-05-19T00:45:01;7.56;78.97
75899;DHT22;64576;50.460;4.866;2023-05-19T00:47:26;7.35;80.29
75899;DHT22;64576;50.460;4.866;2023-05-19T00:49:51;7.17;80.74
75899;DHT22;64576;50.460;4.866;2023-05-19T00:52:17;7.15;80.86
75899;DHT22;64576;50.460;4.866;2023-05-19T00:54:43;7.56;80.34
75899;DHT22;64576;50.460;4.866;2023-05-19T00:57:10;7.36;79.93
75899;DHT22;64576;50.460;4.866;2023-05-19T00:59:36;7.21;80.43
75899;DHT22;64576;50.460;4.866;2023-05-19T01:02:01;6.97;81.51
75899;DHT22;64576;50.460;4.866;2023-05-19T01:04:27;7.00;81.73
75899;DHT22;64576;50.460;4.866;2023-05-19T01:06:54;6.87;81.42
75899;DHT22;64576;50.460;4.866;2023-05-19T01:09:21;6.75;82.84
75899;DHT22;64576;50.460;4.866;2023-05-19T01:11:50;7.27;81.77
75899;DHT22;64576;50.460;4.866;2023-05-19T01:14:16;7.11;81.61
75899;DHT22;64576;50.460;4.866;2023-05-19T01:16:49;7.23;80.78
75899;DHT22;64576;50.460;4.866;2023-05-19T01:22:26;6.97;81.82
75899;DHT22;64576;50.460;4.866;2023-05-19T01:28:19;6.58;83.59
75899;DHT22;64576;50.460;4.866;2023-05-19T01:30:48;6.41;84.36
75899;DHT22;64576;50.460;4.866;2023-05-19T01:33:17;6.27;84.99
75899;DHT22;64576;50.460;4.866;2023-05-19T01:35:46;6.16;85.76
75899;DHT22;64576;50.460;4.866;2023-05-19T01:38:15;5.96;86.41
75899;DHT22;64576;50.460;4.866;2023-05-19T01:40:42;5.82;86.87
75899;DHT22;64576;50.460;4.866;2023-05-19T01:43:10;5.69;87.66
75899;DHT22;64576;50.460;4.866;2023-05-19T01:45:37;5.65;88.02
75899;DHT22;64576;50.460;4.866;2023-05-19T01:48:04;5.62;88.37
75899;DHT22;64576;50.460;4.866;2023-05-19T01:50:31;5.55;88.74
75899;DHT22;64576;50.460;4.866;2023-05-19T01:52:57;5.42;88.85
75899;DHT22;64576;50.460;4.866;2023-05-19T01:55:22;5.36;88.99
75899;DHT22;64576;50.460;4.866;2023-05-19T02:03:23;5.14;90.91
75899;DHT22;64576;50.460;4.866;2023-05-19T02:06:01;5.60;89.95
75899;DHT22;64576;50.460;4.866;2023-05-19T02:08:32;5.76;88.66
75899;DHT22;64576;50.460;4.866;2023-05-19T02:11:04;5.49;89.01
75899;DHT22;64576;50.460;4.866;2023-05-19T02:13:35;5.94;87.99
75899;DHT22;64576;50.460;4.866;2023-05-19T02:16:04;5.46;88.91
75899;DHT22;64576;50.460;4.866;2023-05-19T02:18:31;5.32;90.86
75899;DHT22;64576;50.460;4.866;2023-05-19T02:20:57;5.17;91.40
75899;DHT22;64576;50.460;4.866;2023-05-19T02:23:22;4.99;91.72
75899;DHT22;64576;50.460;4.866;2023-05-19T02:25:48;4.96;92.04
75899;DHT22;64576;50.460;4.866;2023-05-19T02:28:13;4.68;92.39
75899;DHT22;64576;50.460;4.866;2023-05-19T02:30:38;4.66;93.32
75899;DHT22;64576;50.460;4.866;2023-05-19T02:33:04;4.59;93.67
75899;DHT22;64576;50.460;4.866;2023-05-19T02:35:31;4.61;94.80
75899;DHT22;64576;50.460;4.866;2023-05-19T02:37:56;4.80;94.90
75899;DHT22;64576;50.460;4.866;2023-05-19T02:40:21;4.69;94.98
75899;DHT22;64576;50.460;4.866;2023-05-19T02:42:47;4.63;95.26
75899;DHT22;64576;50.460;4.866;2023-05-19T02:45:13;4.69;95.85
75899;DHT22;64576;50.460;4.866;2023-05-19T02:47:38;4.73;96.06
75899;DHT22;64576;50.460;4.866;2023-05-19T02:50:06;4.66;96.53
75899;DHT22;64576;50.460;4.866;2023-05-19T02:52:31;4.61;96.87
75899;DHT22;64576;50.460;4.866;2023-05-19T02:54:57;4.56;97.07
75899;DHT22;64576;50.460;4.866;2023-05-19T02:57:23;4.37;96.77
75899;DHT22;64576;50.460;4.866;2023-05-19T02:59:49;4.30;97.03
75899;DHT22;64576;50.460;4.866;2023-05-19T03:02:15;4.28;97.10
75899;DHT22;64576;50.460;4.866;2023-05-19T03:04:40;4.20;97.21
75899;DHT22;64576;50.460;4.866;2023-05-19T03:07:07;4.32;98.90
75899;DHT22;64576;50.460;4.866;2023-05-19T03:09:36;4.41;98.28
75899;DHT22;64576;50.460;4.866;2023-05-19T03:12:01;4.32;97.74
75899;DHT22;64576;50.460;4.866;2023-05-19T03:14:28;4.25;97.77
75899;DHT22;64576;50.460;4.866;2023-05-19T03:16:54;4.32;97.87
75899;DHT22;64576;50.460;4.866;2023-05-19T03:19:20;4.75;97.76
75899;DHT22;64576;50.460;4.866;2023-05-19T03:21:45;4.44;96.87
75899;DHT22;64576;50.460;4.866;2023-05-19T03:24:12;4.31;97.41
75899;DHT22;64576;50.460;4.866;2023-05-19T03:26:37;4.58;97.73
75899;DHT22;64576;50.460;4.866;2023-05-19T03:29:03;4.38;98.12
75899;DHT22;64576;50.460;4.866;2023-05-19T03:31:28;4.27;98.32
75899;DHT22;64576;50.460;4.866;2023-05-19T03:33:54;4.00;98.43
75899;DHT22;64576;50.460;4.866;2023-05-19T03:36:22;4.00;99.16
75899;DHT22;64576;50.460;4.866;2023-05-19T03:38:47;3.97;99.04
75899;DHT22;64576;50.460;4.866;2023-05-19T03:41:13;4.04;99.79
75899;DHT22;64576;50.460;4.866;2023-05-19T03:43:38;4.10;99.89
75899;DHT22;64576;50.460;4.866;2023-05-19T03:46:04;4.21;99.63
75899;DHT22;64576;50.460;4.866;2023-05-19T03:48:29;4.18;99.37
75899;DHT22;64576;50.460;4.866;2023-05-19T03:50:55;4.04;99.28
75899;DHT22;64576;50.460;4.866;2023-05-19T03:53:20;4.08;99.55
75899;DHT22;64576;50.460;4.866;2023-05-19T03:55:45;4.08;99.55
75899;DHT22;64576;50.460;4.866;2023-05-19T03:58:12;4.01;99.47
75899;DHT22;64576;50.460;4.866;2023-05-19T04:00:39;4.00;99.54
75899;DHT22;64576;50.460;4.866;2023-05-19T04:03:04;4.07;99.99
75899;DHT22;64576;50.460;4.866;2023-05-19T04:05:30;4.20;99.99
75899;DHT22;64576;50.460;4.866;2023-05-19T04:07:55;4.35;99.92
75899;DHT22;64576;50.460;4.866;2023-05-19T04:10:21;4.37;99.30
75899;DHT22;64576;50.460;4.866;2023-05-19T04:12:46;4.28;99.02
75899;DHT22;64576;50.460;4.866;2023-05-19T04:15:12;4.18;98.87
75899;DHT22;64576;50.460;4.866;2023-05-19T04:17:38;4.27;99.38
75899;DHT22;64576;50.460;4.866;2023-05-19T04:20:04;4.70;98.39
75899;DHT22;64576;50.460;4.866;2023-05-19T04:22:31;5.16;96.93
75899;DHT22;64576;50.460;4.866;2023-05-19T04:24:56;5.62;94.68
75899;DHT22;64576;50.460;4.866;2023-05-19T04:27:22;5.94;93.91
75899;DHT22;64576;50.460;4.866;2023-05-19T04:29:47;6.37;93.08
75899;DHT22;64576;50.460;4.866;2023-05-19T04:32:14;6.75;90.81
75899;DHT22;64576;50.460;4.866;2023-05-19T04:34:42;7.15;90.49
75899;DHT22;64576;50.460;4.866;2023-05-19T04:37:12;7.52;88.74
75899;DHT22;64576;50.460;4.866;2023-05-19T04:39:44;7.93;85.84
75899;DHT22;64576;50.460;4.866;2023-05-19T04:42:10;8.33;85.47
75899;DHT22;64576;50.460;4.866;2023-05-19T04:44:36;8.38;84.22
75899;DHT22;64576;50.460;4.866;2023-05-19T04:47:07;8.37;83.20
75899;DHT22;64576;50.460;4.866;2023-05-19T04:49:33;8.48;84.13
75899;DHT22;64576;50.460;4.866;2023-05-19T04:52:06;8.62;84.18
75899;DHT22;64576;50.460;4.866;2023-05-19T04:54:35;8.86;82.74
75899;DHT22;64576;50.460;4.866;2023-05-19T04:57:01;8.87;81.98
75899;DHT22;64576;50.460;4.866;2023-05-19T04:59:26;8.94;81.45
75899;DHT22;64576;50.460;4.866;2023-05-19T05:01:52;9.30;80.21
75899;DHT22;64576;50.460;4.866;2023-05-19T05:04:18;9.47;79.27
75899;DHT22;64576;50.460;4.866;2023-05-19T05:06:43;9.68;77.75
75899;DHT22;64576;50.460;4.866;2023-05-19T05:09:13;10.17;76.45
75899;DHT22;64576;50.460;4.866;2023-05-19T05:11:39;10.27;75.28
75899;DHT22;64576;50.460;4.866;2023-05-19T05:14:04;10.23;73.91
75899;DHT22;64576;50.460;4.866;2023-05-19T05:16:30;10.69;73.03
75899;DHT22;64576;50.460;4.866;2023-05-19T05:18:56;10.59;72.32
75899;DHT22;64576;50.460;4.866;2023-05-19T05:21:22;11.14;72.42
75899;DHT22;64576;50.460;4.866;2023-05-19T05:23:49;11.40;70.71
75899;DHT22;64576;50.460;4.866;2023-05-19T05:26:19;11.07;70.75
75899;DHT22;64576;50.460;4.866;2023-05-19T05:28:47;11.14;71.05
75899;DHT22;64576;50.460;4.866;2023-05-19T05:31:13;11.48;70.37
75899;DHT22;64576;50.460;4.866;2023-05-19T05:33:39;11.69;71.10
75899;DHT22;64576;50.460;4.866;2023-05-19T05:36:04;11.38;69.82
75899;DHT22;64576;50.460;4.866;2023-05-19T05:38:30;11.09;70.70
75899;DHT22;64576;50.460;4.866;2023-05-19T05:40:55;11.54;70.43
75899;DHT22;64576;50.460;4.866;2023-05-19T05:43:21;12.38;68.48
75899;DHT22;64576;50.460;4.866;2023-05-19T05:45:46;12.92;67.33
75899;DHT22;64576;50.460;4.866;2023-05-19T05:48:12;13.43;65.54
75899;DHT22;64576;50.460;4.866;2023-05-19T05:50:38;13.57;64.31
75899;DHT22;64576;50.460;4.866;2023-05-19T05:53:05;13.65;65.02
75899;DHT22;64576;50.460;4.866;2023-05-19T05:55:31;13.17;66.20
75899;DHT22;64576;50.460;4.866;2023-05-19T05:57:57;13.91;63.58
75899;DHT22;64576;50.460;4.866;2023-05-19T06:00:24;13.94;62.68
75899;DHT22;64576;50.460;4.866;2023-05-19T06:02:52;14.41;61.91
75899;DHT22;64576;50.460;4.866;2023-05-19T06:05:17;14.36;62.03
75899;DHT22;64576;50.460;4.866;2023-05-19T06:07:43;14.29;62.24
75899;DHT22;64576;50.460;4.866;2023-05-19T06:10:08;14.60;61.68
75899;DHT22;64576;50.460;4.866;2023-05-19T06:12:34;14.89;60.27
75899;DHT22;64576;50.460;4.866;2023-05-19T06:15:04;14.28;61.91
75899;DHT22;64576;50.460;4.866;2023-05-19T06:17:30;14.67;61.03
75899;DHT22;64576;50.460;4.866;2023-05-19T06:19:55;15.12;60.32
75899;DHT22;64576;50.460;4.866;2023-05-19T06:22:20;15.43;58.64
75899;DHT22;64576;50.460;4.866;2023-05-19T06:24:46;15.66;57.63
75899;DHT22;64576;50.460;4.866;2023-05-19T06:27:12;15.77;58.80
75899;DHT22;64576;50.460;4.866;2023-05-19T06:29:38;14.89;59.54
75899;DHT22;64576;50.460;4.866;2023-05-19T06:32:04;14.66;59.68
75899;DHT22;64576;50.460;4.866;2023-05-19T06:34:29;15.18;60.70
75899;DHT22;64576;50.460;4.866;2023-05-19T06:36:55;16.36;57.67
75899;DHT22;64576;50.460;4.866;2023-05-19T06:39:20;16.04;57.91
75899;DHT22;64576;50.460;4.866;2023-05-19T06:41:46;16.36;57.60
75899;DHT22;64576;50.460;4.866;2023-05-19T06:44:11;16.71;55.82
75899;DHT22;64576;50.460;4.866;2023-05-19T06:46:37;17.35;54.50
75899;DHT22;64576;50.460;4.866;2023-05-19T06:49:02;17.42;54.38
75899;DHT22;64576;50.460;4.866;2023-05-19T06:51:28;17.49;54.04
75899;DHT22;64576;50.460;4.866;2023-05-19T06:53:53;17.63;53.63
75899;DHT22;64576;50.460;4.866;2023-05-19T06:56:18;17.84;53.11
75899;DHT22;64576;50.460;4.866;2023-05-19T06:58:44;17.90;53.85
75899;DHT22;64576;50.460;4.866;2023-05-19T07:01:10;17.90;52.45
75899;DHT22;64576;50.460;4.866;2023-05-19T07:03:36;18.38;52.69
75899;DHT22;64576;50.460;4.866;2023-05-19T07:06:01;17.77;53.03
75899;DHT22;64576;50.460;4.866;2023-05-19T07:08:27;19.12;50.63
75899;DHT22;64576;50.460;4.866;2023-05-19T07:10:53;19.14;49.91
75899;DHT22;64576;50.460;4.866;2023-05-19T07:13:20;18.31;51.54
75899;DHT22;64576;50.460;4.866;2023-05-19T07:15:45;18.32;51.53
75899;DHT22;64576;50.460;4.866;2023-05-19T07:18:13;17.43;52.79
75899;DHT22;64576;50.460;4.866;2023-05-19T07:20:39;17.94;51.99
75899;DHT22;64576;50.460;4.866;2023-05-19T07:23:05;17.72;52.75
75899;DHT22;64576;50.460;4.866;2023-05-19T07:25:31;18.90;51.59
75899;DHT22;64576;50.460;4.866;2023-05-19T07:27:57;18.90;50.53
75899;DHT22;64576;50.460;4.866;2023-05-19T07:30:26;20.07;48.98
75899;DHT22;64576;50.460;4.866;2023-05-19T07:32:51;19.83;48.76
75899;DHT22;64576;50.460;4.866;2023-05-19T07:35:17;19.93;48.86
75899;DHT22;64576;50.460;4.866;2023-05-19T07:37:44;20.03;48.30
75899;DHT22;64576;50.460;4.866;2023-05-19T07:40:16;19.38;49.38
75899;DHT22;64576;50.460;4.866;2023-05-19T07:42:43;20.79;47.94
75899;DHT22;64576;50.460;4.866;2023-05-19T07:45:09;19.48;48.84
75899;DHT22;64576;50.460;4.866;2023-05-19T07:47:36;20.20;49.11
75899;DHT22;64576;50.460;4.866;2023-05-19T07:50:02;19.67;51.04
75899;DHT22;64576;50.460;4.866;2023-05-19T07:52:32;20.03;49.44
75899;DHT22;64576;50.460;4.866;2023-05-19T07:54:58;20.42;48.33
75899;DHT22;64576;50.460;4.866;2023-05-19T07:57:26;18.90;51.95
75899;DHT22;64576;50.460;4.866;2023-05-19T07:59:53;18.51;52.05
75899;DHT22;64576;50.460;4.866;2023-05-19T08:02:20;19.83;50.06
75899;DHT22;64576;50.460;4.866;2023-05-19T08:04:47;18.59;52.84
75899;DHT22;64576;50.460;4.866;2023-05-19T08:07:13;19.03;49.89
75899;DHT22;64576;50.460;4.866;2023-05-19T08:09:39;20.24;48.00
75899;DHT22;64576;50.460;4.866;2023-05-19T08:12:05;19.11;50.08
75899;DHT22;64576;50.460;4.866;2023-05-19T08:14:32;19.15;49.63
75899;DHT22;64576;50.460;4.866;2023-05-19T08:17:00;20.17;47.21
75899;DHT22;64576;50.460;4.866;2023-05-19T08:19:27;20.28;48.63
75899;DHT22;64576;50.460;4.866;2023-05-19T08:21:53;19.83;49.37
75899;DHT22;64576;50.460;4.866;2023-05-19T08:24:18;21.00;47.48
75899;DHT22;64576;50.460;4.866;2023-05-19T08:26:43;21.20;46.14
75899;DHT22;64576;50.460;4.866;2023-05-19T08:29:09;21.11;46.66
75899;DHT22;64576;50.460;4.866;2023-05-19T08:31:35;20.01;46.38
75899;DHT22;64576;50.460;4.866;2023-05-19T08:34:00;21.03;45.64
75899;DHT22;64576;50.460;4.866;2023-05-19T08:36:26;20.31;44.38
75899;DHT22;64576;50.460;4.866;2023-05-19T08:38:52;22.43;42.35
75899;DHT22;64576;50.460;4.866;2023-05-19T08:41:18;21.63;42.08
75899;DHT22;64576;50.460;4.866;2023-05-19T08:43:45;21.40;43.33
75899;DHT22;64576;50.460;4.866;2023-05-19T08:46:12;20.01;45.48
75899;DHT22;64576;50.460;4.866;2023-05-19T08:48:41;19.98;45.51
75899;DHT22;64576;50.460;4.866;2023-05-19T08:53:37;19.82;44.93
75899;DHT22;64576;50.460;4.866;2023-05-19T08:56:07;21.31;42.84
75899;DHT22;64576;50.460;4.866;2023-05-19T08:58:40;22.72;39.10
75899;DHT22;64576;50.460;4.866;2023-05-19T09:01:09;22.36;40.15
75899;DHT22;64576;50.460;4.866;2023-05-19T09:03:35;21.78;41.65
75899;DHT22;64576;50.460;4.866;2023-05-19T09:06:06;20.96;42.10
75899;DHT22;64576;50.460;4.866;2023-05-19T09:08:36;22.68;38.30
75899;DHT22;64576;50.460;4.866;2023-05-19T09:11:02;22.20;39.34
75899;DHT22;64576;50.460;4.866;2023-05-19T09:13:35;20.38;43.04
75899;DHT22;64576;50.460;4.866;2023-05-19T09:16:02;20.58;42.89
75899;DHT22;64576;50.460;4.866;2023-05-19T09:18:28;20.07;41.44
75899;DHT22;64576;50.460;4.866;2023-05-19T09:21:01;21.24;39.99
75899;DHT22;64576;50.460;4.866;2023-05-19T09:23:29;23.24;36.32
75899;DHT22;64576;50.460;4.866;2023-05-19T09:26:00;22.51;36.95
75899;DHT22;64576;50.460;4.866;2023-05-19T09:28:34;21.61;38.61
75899;DHT22;64576;50.460;4.866;2023-05-19T09:31:03;21.65;40.09
75899;DHT22;64576;50.460;4.866;2023-05-19T09:33:40;19.82;40.40
75899;DHT22;64576;50.460;4.866;2023-05-19T09:36:08;22.37;38.58
75899;DHT22;64576;50.460;4.866;2023-05-19T09:38:36;21.75;40.78
75899;DHT22;64576;50.460;4.866;2023-05-19T09:41:03;22.37;38.49
75899;DHT22;64576;50.460;4.866;2023-05-19T09:43:33;22.61;38.69
75899;DHT22;64576;50.460;4.866;2023-05-19T09:46:05;22.30;38.29
75899;DHT22;64576;50.460;4.866;2023-05-19T09:48:32;23.55;36.53
75899;DHT22;64576;50.460;4.866;2023-05-19T09:50:59;20.87;40.11
75899;DHT22;64576;50.460;4.866;2023-05-19T09:53:25;22.29;38.89
75899;DHT22;64576;50.460;4.866;2023-05-19T09:55:54;22.18;38.26
75899;DHT22;64576;50.460;4.866;2023-05-19T09:58:21;24.23;35.71
75899;DHT22;64576;50.460;4.866;2023-05-19T10:00:49;22.58;39.25
75899;DHT22;64576;50.460;4.866;2023-05-19T10:03:15;22.37;38.54
75899;DHT22;64576;50.460;4.866;2023-05-19T10:05:42;22.99;37.87
75899;DHT22;64576;50.460;4.866;2023-05-19T10:08:08;20.68;41.62
75899;DHT22;64576;50.460;4.866;2023-05-19T10:10:38;21.66;40.12
75899;DHT22;64576;50.460;4.866;2023-05-19T10:13:04;23.55;39.06
75899;DHT22;64576;50.460;4.866;2023-05-19T10:15:30;24.56;35.85
75899;DHT22;64576;50.460;4.866;2023-05-19T10:17:56;23.09;39.26
75899;DHT22;64576;50.460;4.866;2023-05-19T10:20:23;21.35;42.03
75899;DHT22;64576;50.460;4.866;2023-05-19T10:22:50;22.39;38.87
75899;DHT22;64576;50.460;4.866;2023-05-19T10:25:16;23.23;37.54
75899;DHT22;64576;50.460;4.866;2023-05-19T10:27:54;23.91;36.92
75899;DHT22;64576;50.460;4.866;2023-05-19T10:30:36;23.12;38.26
75899;DHT22;64576;50.460;4.866;2023-05-19T10:33:05;22.88;38.68
75899;DHT22;64576;50.460;4.866;2023-05-19T10:35:58;24.30;36.64
75899;DHT22;64576;50.460;4.866;2023-05-19T10:41:15;20.53;40.69
75899;DHT22;64576;50.460;4.866;2023-05-19T10:46:30;23.16;38.09
75899;DHT22;64576;50.460;4.866;2023-05-19T10:48:59;23.24;39.20
75899;DHT22;64576;50.460;4.866;2023-05-19T10:51:31;23.40;36.77
75899;DHT22;64576;50.460;4.866;2023-05-19T10:54:39;24.22;36.89
75899;DHT22;64576;50.460;4.866;2023-05-19T10:57:17;23.86;37.23
75899;DHT22;64576;50.460;4.866;2023-05-19T10:59:44;23.75;37.69
75899;DHT22;64576;50.460;4.866;2023-05-19T11:02:10;23.84;36.08
75899;DHT22;64576;50.460;4.866;2023-05-19T11:05:06;23.74;36.79
75899;DHT22;64576;50.460;4.866;2023-05-19T11:07:32;24.33;35.92
75899;DHT22;64576;50.460;4.866;2023-05-19T11:10:04;22.21;39.43
75899;DHT22;64576;50.460;4.866;2023-05-19T11:12:42;24.01;36.67
75899;DHT22;64576;50.460;4.866;2023-05-19T11:15:10;24.43;35.56
75899;DHT22;64576;50.460;4.866;2023-05-19T11:17:38;23.82;36.70
75899;DHT22;64576;50.460;4.866;2023-05-19T11:20:08;23.30;36.64
75899;DHT22;64576;50.460;4.866;2023-05-19T11:22:38;22.16;38.87
75899;DHT22;64576;50.460;4.866;2023-05-19T11:25:04;23.89;37.50
75899;DHT22;64576;50.460;4.866;2023-05-19T11:27:34;23.86;36.00
75899;DHT22;64576;50.460;4.866;2023-05-19T11:32:33;24.04;35.87
75899;DHT22;64576;50.460;4.866;2023-05-19T11:34:59;25.14;34.27
75899;DHT22;64576;50.460;4.866;2023-05-19T11:37:25;22.41;39.07
75899;DHT22;64576;50.460;4.866;2023-05-19T11:39:55;23.44;37.47
75899;DHT22;64576;50.460;4.866;2023-05-19T11:42:20;23.15;37.23
75899;DHT22;64576;50.460;4.866;2023-05-19T11:44:53;23.42;36.05
75899;DHT22;64576;50.460;4.866;2023-05-19T11:47:19;21.96;37.07
75899;DHT22;64576;50.460;4.866;2023-05-19T11:49:47;22.47;38.36
75899;DHT22;64576;50.460;4.866;2023-05-19T11:52:12;23.64;37.47
75899;DHT22;64576;50.460;4.866;2023-05-19T11:54:38;23.74;36.56
75899;DHT22;64576;50.460;4.866;2023-05-19T11:57:08;23.15;36.21
75899;DHT22;64576;50.460;4.866;2023-05-19T11:59:36;24.63;34.47
75899;DHT22;64576;50.460;4.866;2023-05-19T12:02:18;25.84;33.90
75899;DHT22;64576;50.460;4.866;2023-05-19T12:04:45;26.77;32.31
75899;DHT22;64576;50.460;4.866;2023-05-19T12:07:11;24.23;34.07
75899;DHT22;64576;50.460;4.866;2023-05-19T12:09:39;24.22;34.51
75899;DHT22;64576;50.460;4.866;2023-05-19T12:12:05;22.69;36.54
75899;DHT22;64576;50.460;4.866;2023-05-19T12:14:30;24.59;35.06
75899;DHT22;64576;50.460;4.866;2023-05-19T12:16:56;24.52;34.37
75899;DHT22;64576;50.460;4.866;2023-05-19T12:19:22;25.33;33.02
75899;DHT22;64576;50.460;4.866;2023-05-19T12:21:52;24.64;32.02
75899;DHT22;64576;50.460;4.866;2023-05-19T12:24:19;24.84;33.54
75899;DHT22;64576;50.460;4.866;2023-05-19T12:26:47;24.88;34.22
75899;DHT22;64576;50.460;4.866;2023-05-19T12:29:16;25.51;33.17
75899;DHT22;64576;50.460;4.866;2023-05-19T12:31:45;22.41;36.85
75899;DHT22;64576;50.460;4.866;2023-05-19T12:34:11;22.10;38.04
75899;DHT22;64576;50.460;4.866;2023-05-19T12:36:37;23.55;36.70
75899;DHT22;64576;50.460;4.866;2023-05-19T12:39:03;23.30;35.47
75899;DHT22;64576;50.460;4.866;2023-05-19T12:41:30;23.50;36.85
75899;DHT22;64576;50.460;4.866;2023-05-19T12:43:55;24.46;35.57
75899;DHT22;64576;50.460;4.866;2023-05-19T12:46:21;24.71;34.55
75899;DHT22;64576;50.460;4.866;2023-05-19T12:48:47;25.25;33.64
75899;DHT22;64576;50.460;4.866;2023-05-19T12:51:16;24.35;34.37
75899;DHT22;64576;50.460;4.866;2023-05-19T12:53:42;22.96;37.59
75899;DHT22;64576;50.460;4.866;2023-05-19T12:56:12;23.58;36.99
75899;DHT22;64576;50.460;4.866;2023-05-19T12:58:40;24.41;35.69
75899;DHT22;64576;50.460;4.866;2023-05-19T13:01:06;22.76;35.83
75899;DHT22;64576;50.460;4.866;2023-05-19T13:03:39;24.32;34.10
75899;DHT22;64576;50.460;4.866;2023-05-19T13:06:05;23.81;34.67
75899;DHT22;64576;50.460;4.866;2023-05-19T13:08:30;23.89;35.09
75899;DHT22;64576;50.460;4.866;2023-05-19T13:10:56;24.41;34.62
75899;DHT22;64576;50.460;4.866;2023-05-19T13:13:21;24.41;35.44
75899;DHT22;64576;50.460;4.866;2023-05-19T13:15:47;23.15;37.02
75899;DHT22;64576;50.460;4.866;2023-05-19T13:18:13;23.67;35.89
75899;DHT22;64576;50.460;4.866;2023-05-19T13:20:40;24.68;35.08
75899;DHT22;64576;50.460;4.866;2023-05-19T13:23:05;24.06;34.83
75899;DHT22;64576;50.460;4.866;2023-05-19T13:25:34;23.53;37.39
75899;DHT22;64576;50.460;4.866;2023-05-19T13:28:01;23.65;37.49
75899;DHT22;64576;50.460;4.866;2023-05-19T13:30:30;23.24;37.97
75899;DHT22;64576;50.460;4.866;2023-05-19T13:32:55;22.06;40.20
75899;DHT22;64576;50.460;4.866;2023-05-19T13:35:21;23.53;37.72
75899;DHT22;64576;50.460;4.866;2023-05-19T13:37:46;25.15;34.77
75899;DHT22;64576;50.460;4.866;2023-05-19T13:40:13;24.67;35.79
75899;DHT22;64576;50.460;4.866;2023-05-19T13:42:39;24.16;34.78
75899;DHT22;64576;50.460;4.866;2023-05-19T13:45:05;22.07;37.30
75899;DHT22;64576;50.460;4.866;2023-05-19T13:47:30;23.00;37.63
75899;DHT22;64576;50.460;4.866;2023-05-19T13:49:56;23.23;37.89
75899;DHT22;64576;50.460;4.866;2023-05-19T13:52:22;23.74;36.00
75899;DHT22;64576;50.460;4.866;2023-05-19T13:54:47;23.33;36.80
75899;DHT22;64576;50.460;4.866;2023-05-19T13:57:16;23.89;35.58
75899;DHT22;64576;50.460;4.866;2023-05-19T13:59:42;23.97;35.98
75899;DHT22;64576;50.460;4.866;2023-05-19T14:02:08;24.37;35.51
75899;DHT22;64576;50.460;4.866;2023-05-19T14:04:37;24.66;35.89
75899;DHT22;64576;50.460;4.866;2023-05-19T14:07:06;23.06;38.02
75899;DHT22;64576;50.460;4.866;2023-05-19T14:09:32;23.13;38.47
75899;DHT22;64576;50.460;4.866;2023-05-19T14:11:58;21.02;38.39
75899;DHT22;64576;50.460;4.866;2023-05-19T14:14:24;20.93;40.22
75899;DHT22;64576;50.460;4.866;2023-05-19T14:16:49;22.78;37.66
75899;DHT22;64576;50.460;4.866;2023-05-19T14:19:14;23.00;36.46
75899;DHT22;64576;50.460;4.866;2023-05-19T14:21:49;24.15;36.50
75899;DHT22;64576;50.460;4.866;2023-05-19T14:24:18;23.99;36.07
75899;DHT22;64576;50.460;4.866;2023-05-19T14:26:44;23.58;36.13
75899;DHT22;64576;50.460;4.866;2023-05-19T14:29:09;23.71;35.48
75899;DHT22;64576;50.460;4.866;2023-05-19T14:31:35;23.65;36.95
75899;DHT22;64576;50.460;4.866;2023-05-19T14:34:00;24.49;35.66
75899;DHT22;64576;50.460;4.866;2023-05-19T14:36:25;24.53;35.33
75899;DHT22;64576;50.460;4.866;2023-05-19T14:38:51;24.68;35.49
75899;DHT22;64576;50.460;4.866;2023-05-19T14:41:16;24.11;35.71
75899;DHT22;64576;50.460;4.866;2023-05-19T14:43:42;23.47;36.53
75899;DHT22;64576;50.460;4.866;2023-05-19T14:46:07;23.17;36.38
75899;DHT22;64576;50.460;4.866;2023-05-19T14:48:36;23.81;34.78
75899;DHT22;64576;50.460;4.866;2023-05-19T14:51:01;23.61;35.21
75899;DHT22;64576;50.460;4.866;2023-05-19T14:53:29;23.63;35.36
75899;DHT22;64576;50.460;4.866;2023-05-19T14:55:55;23.24;36.45
75899;DHT22;64576;50.460;4.866;2023-05-19T14:58:20;23.46;36.71
75899;DHT22;64576;50.460;4.866;2023-05-19T15:00:46;23.53;36.17
75899;DHT22;64576;50.460;4.866;2023-05-19T15:03:12;24.06;34.93
75899;DHT22;64576;50.460;4.866;2023-05-19T15:05:37;24.01;35.00
75899;DHT22;64576;50.460;4.866;2023-05-19T15:08:04;24.33;35.24
75899;DHT22;64576;50.460;4.866;2023-05-19T15:10:30;23.09;36.86
75899;DHT22;64576;50.460;4.866;2023-05-19T15:12:55;23.88;36.01
75899;DHT22;64576;50.460;4.866;2023-05-19T15:15:22;23.00;36.33
75899;DHT22;64576;50.460;4.866;2023-05-19T15:17:48;22.89;36.58
75899;DHT22;64576;50.460;4.866;2023-05-19T15:20:13;23.13;35.61
75899;DHT22;64576;50.460;4.866;2023-05-19T15:22:39;23.15;34.49
75899;DHT22;64576;50.460;4.866;2023-05-19T15:25:05;21.47;39.15
75899;DHT22;64576;50.460;4.866;2023-05-19T15:27:30;22.24;37.77
75899;DHT22;64576;50.460;4.866;2023-05-19T15:29:56;21.93;36.57
75899;DHT22;64576;50.460;4.866;2023-05-19T15:32:22;22.89;36.34
75899;DHT22;64576;50.460;4.866;2023-05-19T15:34:48;23.02;36.25
75899;DHT22;64576;50.460;4.866;2023-05-19T15:37:13;22.10;37.78
75899;DHT22;64576;50.460;4.866;2023-05-19T15:39:39;21.78;39.30
75899;DHT22;64576;50.460;4.866;2023-05-19T15:42:05;20.42;40.01
75899;DHT22;64576;50.460;4.866;2023-05-19T15:44:30;20.40;38.93
75899;DHT22;64576;50.460;4.866;2023-05-19T15:46:56;20.31;40.24
75899;DHT22;64576;50.460;4.866;2023-05-19T15:49:21;20.44;39.20
75899;DHT22;64576;50.460;4.866;2023-05-19T15:51:49;20.79;38.56
75899;DHT22;64576;50.460;4.866;2023-05-19T15:54:14;20.44;38.70
75899;DHT22;64576;50.460;4.866;2023-05-19T15:56:40;21.04;37.71